NORTHEAST SUFFOLK  -  Rip Current Statement Rip Current Statement        NORTHWEST SUFFOLK  -  Rip Current Statement Rip Current Statement        SOUTHEAST SUFFOLK  -  Rip Current Statement Rip Current Statement        SOUTHWEST SUFFOLK  -  Rip Current Statement Rip Current Statement      

Active alerts

Northwest Suffolk
  Details for Northwest Suffolk Rip Current Statement
Southwest Suffolk
  Details for Southwest Suffolk Rip Current Statement
Northeast Suffolk
  Details for Northeast Suffolk Rip Current Statement
Southeast Suffolk
  Details for Southeast Suffolk Rip Current Statement


WXM80 ListenWXM80 Stop

You find our weather info also at:

UK Metoffice

WeatherCloud

Weather Underground

Northeastern Weather Network

AWEKAS

Citizen Weather Observer Program (CWOP)

HAMweather, WeatherForYou, PWS Weather


Weather Underground History page Text

Daily Summary for March 9, 2018 Units:  Both    English   Metric
« Previous Day
Next Day »
Daily Weekly Monthly Yearly Custom
  High: Low: Average:
Temperature: 42.8 °F /  6 °C 30.4 °F /  -0.9 °C 36.8 °F /  2.7 °C
Dew Point: 29.9 °F /  -1.2 °C 22.1 °F /  -5.5 °C 27.3 °F /  -2.6 °C
Humidity: 88 % 55 % 69 %
Wind Speed: 10.8 mph /  17.4 km/h - 5.1 mph /  8.2 km/h
Wind Gust: 19.6 mph /  31.5 km/h - -
Wind:- - West
Pressure: 29.57 in /  1001.2 hPa 29.42 in /  996.2 hPa -
Precipitation: 0.00 in /  0 mm    
Historical Graphs
 
 
Tabular Data for March 9, 2018
Time Temperature Dew Point Pressure Wind Wind Speed Wind Gust Humidity Rainfall Rate (Hourly)
00:02 35.2 °F /  1.8 °C 27.4 °F /  -2.6 °C 29.42 in /  996.2 hPa WNW 2.7 mph /  4.3 km/h 8.1 mph /  13 km/h 73 % 0.00 in /  0 mm
00:07 35.2 °F /  1.8 °C 27.4 °F /  -2.6 °C 29.42 in /  996.2 hPa WSW 5.7 mph /  9.2 km/h 5.7 mph /  9.2 km/h 73 % 0.00 in /  0 mm
00:13 35.1 °F /  1.7 °C 27.6 °F /  -2.4 °C 29.42 in /  996.2 hPa NW 6.4 mph /  10.3 km/h 10.0 mph /  16.1 km/h 74 % 0.00 in /  0 mm
00:18 35.1 °F /  1.7 °C 27.6 °F /  -2.4 °C 29.42 in /  996.2 hPa WNW 5.5 mph /  8.9 km/h 8.0 mph /  12.9 km/h 74 % 0.00 in /  0 mm
00:23 35.1 °F /  1.7 °C 28.0 °F /  -2.2 °C 29.42 in /  996.2 hPa SW 3.7 mph /  6 km/h 8.1 mph /  13 km/h 75 % 0.00 in /  0 mm
00:28 35.0 °F /  1.7 °C 28.2 °F /  -2.1 °C 29.42 in /  996.2 hPa WSW 5.1 mph /  8.2 km/h 9.2 mph /  14.8 km/h 76 % 0.00 in /  0 mm
00:33 34.9 °F /  1.6 °C 27.8 °F /  -2.3 °C 29.42 in /  996.2 hPa WSW 5.6 mph /  9 km/h 10.4 mph /  16.7 km/h 75 % 0.00 in /  0 mm
00:38 34.9 °F /  1.6 °C 27.8 °F /  -2.3 °C 29.42 in /  996.2 hPa WSW 3.1 mph /  5 km/h 8.1 mph /  13 km/h 75 % 0.00 in /  0 mm
00:43 34.8 °F /  1.6 °C 27.7 °F /  -2.4 °C 29.42 in /  996.2 hPa West 3.4 mph /  5.5 km/h 6.9 mph /  11.1 km/h 75 % 0.00 in /  0 mm
00:48 34.8 °F /  1.6 °C 28.0 °F /  -2.2 °C 29.42 in /  996.2 hPa WNW 2.4 mph /  3.9 km/h 5.8 mph /  9.3 km/h 76 % 0.00 in /  0 mm
00:53 34.7 °F /  1.5 °C 27.9 °F /  -2.3 °C 29.42 in /  996.2 hPa West 3.3 mph /  5.3 km/h 5.8 mph /  9.3 km/h 76 % 0.00 in /  0 mm
00:58 34.7 °F /  1.5 °C 27.6 °F /  -2.4 °C 29.42 in /  996.2 hPa WSW 2.9 mph /  4.7 km/h 6.9 mph /  11.1 km/h 75 % 0.00 in /  0 mm
01:03 34.6 °F /  1.4 °C 27.5 °F /  -2.5 °C 29.42 in /  996.2 hPa West 3.8 mph /  6.1 km/h 8.1 mph /  13 km/h 75 % 0.00 in /  0 mm
01:08 34.5 °F /  1.4 °C 27.1 °F /  -2.7 °C 29.42 in /  996.2 hPa West 2.5 mph /  4 km/h 6.9 mph /  11.1 km/h 74 % 0.00 in /  0 mm
01:13 34.4 °F /  1.3 °C 27.0 °F /  -2.8 °C 29.42 in /  996.2 hPa SW 1.2 mph /  1.9 km/h 4.6 mph /  7.4 km/h 74 % 0.00 in /  0 mm
01:18 34.4 °F /  1.3 °C 27.3 °F /  -2.6 °C 29.42 in /  996.2 hPa Calm   3.5 mph /  5.6 km/h 75 % 0.00 in /  0 mm
01:20 34.4 °F /  1.3 °C 27.3 °F /  -2.6 °C 29.42 in /  996.2 hPa West 2.0 mph /  3.2 km/h 6.9 mph /  11.1 km/h 75 % 0.00 in /  0 mm
01:25 34.3 °F /  1.3 °C 27.5 °F /  -2.5 °C 29.42 in /  996.2 hPa West 1.2 mph /  1.9 km/h 4.6 mph /  7.4 km/h 76 % 0.00 in /  0 mm
01:30 34.3 °F /  1.3 °C 27.5 °F /  -2.5 °C 29.42 in /  996.2 hPa WSW 2.4 mph /  3.9 km/h 4.6 mph /  7.4 km/h 76 % 0.00 in /  0 mm
01:35 34.2 °F /  1.2 °C 27.4 °F /  -2.6 °C 29.42 in /  996.2 hPa WNW 3.0 mph /  4.8 km/h 5.8 mph /  9.3 km/h 76 % 0.00 in /  0 mm
01:40 34.2 °F /  1.2 °C 27.4 °F /  -2.6 °C 29.42 in /  996.2 hPa West 3.1 mph /  5 km/h 4.6 mph /  7.4 km/h 76 % 0.00 in /  0 mm
01:45 34.1 °F /  1.2 °C 27.3 °F /  -2.6 °C 29.42 in /  996.2 hPa West 1.6 mph /  2.6 km/h 5.0 mph /  8 km/h 76 % 0.00 in /  0 mm
01:50 34.1 °F /  1.2 °C 27.3 °F /  -2.6 °C 29.42 in /  996.2 hPa WSW 4.6 mph /  7.4 km/h 6.9 mph /  11.1 km/h 76 % 0.00 in /  0 mm
01:55 34.0 °F /  1.1 °C 27.5 °F /  -2.5 °C 29.42 in /  996.2 hPa West 5.1 mph /  8.2 km/h 9.2 mph /  14.8 km/h 77 % 0.00 in /  0 mm
02:00 33.9 °F /  1.1 °C 27.1 °F /  -2.7 °C 29.42 in /  996.2 hPa WSW 6.5 mph /  10.5 km/h 8.1 mph /  13 km/h 76 % 0.00 in /  0 mm
02:05 33.9 °F /  1.1 °C 26.8 °F /  -2.9 °C 29.42 in /  996.2 hPa WSW 2.2 mph /  3.5 km/h 6.0 mph /  9.7 km/h 75 % 0.00 in /  0 mm
02:10 33.8 °F /  1 °C 26.7 °F /  -2.9 °C 29.42 in /  996.2 hPa West 5.4 mph /  8.7 km/h 8.1 mph /  13 km/h 75 % 0.00 in /  0 mm
02:15 33.8 °F /  1 °C 26.4 °F /  -3.1 °C 29.42 in /  996.2 hPa West 2.8 mph /  4.5 km/h 4.0 mph /  6.4 km/h 74 % 0.00 in /  0 mm
02:20 33.7 °F /  0.9 °C 25.6 °F /  -3.6 °C 29.42 in /  996.2 hPa SW 5.5 mph /  8.9 km/h 9.2 mph /  14.8 km/h 72 % 0.00 in /  0 mm
02:25 33.7 °F /  0.9 °C 25.0 °F /  -3.9 °C 29.42 in /  996.2 hPa WNW 5.0 mph /  8 km/h 9.2 mph /  14.8 km/h 70 % 0.00 in /  0 mm
02:30 33.6 °F /  0.9 °C 24.2 °F /  -4.3 °C 29.42 in /  996.2 hPa WSW 5.5 mph /  8.9 km/h 8.1 mph /  13 km/h 68 % 0.00 in /  0 mm
02:35 33.6 °F /  0.9 °C 24.2 °F /  -4.3 °C 29.42 in /  996.2 hPa WNW 3.2 mph /  5.1 km/h 8.1 mph /  13 km/h 68 % 0.00 in /  0 mm
02:40 33.5 °F /  0.8 °C 24.8 °F /  -4 °C 29.42 in /  996.2 hPa West 3.1 mph /  5 km/h 10.0 mph /  16.1 km/h 70 % 0.00 in /  0 mm
02:46 33.5 °F /  0.8 °C 25.1 °F /  -3.8 °C 29.42 in /  996.2 hPa West 3.0 mph /  4.8 km/h 9.0 mph /  14.5 km/h 71 % 0.00 in /  0 mm
02:51 33.5 °F /  0.8 °C 25.4 °F /  -3.7 °C 29.42 in /  996.2 hPa West 2.0 mph /  3.2 km/h 8.0 mph /  12.9 km/h 72 % 0.00 in /  0 mm
02:56 33.5 °F /  0.8 °C 25.8 °F /  -3.4 °C 29.42 in /  996.2 hPa West 5.0 mph /  8 km/h 10.0 mph /  16.1 km/h 73 % 0.00 in /  0 mm
03:01 33.4 °F /  0.8 °C 25.7 °F /  -3.5 °C 29.42 in /  996.2 hPa WSW 6.2 mph /  10 km/h 9.2 mph /  14.8 km/h 73 % 0.00 in /  0 mm
03:06 33.4 °F /  0.8 °C 25.3 °F /  -3.7 °C 29.42 in /  996.2 hPa West 5.0 mph /  8 km/h 12.0 mph /  19.3 km/h 72 % 0.00 in /  0 mm
03:11 33.3 °F /  0.7 °C 25.2 °F /  -3.8 °C 29.42 in /  996.2 hPa West 7.0 mph /  11.3 km/h 12.0 mph /  19.3 km/h 72 % 0.00 in /  0 mm
03:16 33.3 °F /  0.7 °C 24.9 °F /  -3.9 °C 29.42 in /  996.2 hPa WSW 3.2 mph /  5.1 km/h 6.9 mph /  11.1 km/h 71 % 0.00 in /  0 mm
03:21 33.2 °F /  0.7 °C 25.2 °F /  -3.8 °C 29.42 in /  996.2 hPa WSW 6.0 mph /  9.7 km/h 12.0 mph /  19.3 km/h 72 % 0.00 in /  0 mm
03:26 33.2 °F /  0.7 °C 25.1 °F /  -3.8 °C 29.42 in /  996.2 hPa WSW 6.0 mph /  9.7 km/h 12.0 mph /  19.3 km/h 72 % 0.00 in /  0 mm
03:31 33.1 °F /  0.6 °C 24.7 °F /  -4.1 °C 29.42 in /  996.2 hPa WSW 8.0 mph /  12.9 km/h 14.0 mph /  22.5 km/h 71 % 0.00 in /  0 mm
03:36 33.0 °F /  0.6 °C 24.6 °F /  -4.1 °C 29.42 in /  996.2 hPa SW 1.0 mph /  1.6 km/h 6.9 mph /  11.1 km/h 71 % 0.00 in /  0 mm
03:41 32.9 °F /  0.5 °C 24.5 °F /  -4.2 °C 29.43 in /  996.5 hPa WSW 8.0 mph /  12.9 km/h 14.0 mph /  22.5 km/h 71 % 0.00 in /  0 mm
03:46 32.8 °F /  0.4 °C 24.1 °F /  -4.4 °C 29.42 in /  996.2 hPa WSW 2.0 mph /  3.2 km/h 14.0 mph /  22.5 km/h 70 % 0.00 in /  0 mm
03:51 32.7 °F /  0.4 °C 24.4 °F /  -4.2 °C 29.42 in /  996.2 hPa WSW 8.0 mph /  12.9 km/h 17.0 mph /  27.4 km/h 71 % 0.00 in /  0 mm
03:56 32.7 °F /  0.4 °C 24.3 °F /  -4.3 °C 29.43 in /  996.5 hPa SW 5.0 mph /  8 km/h 17.0 mph /  27.4 km/h 71 % 0.00 in /  0 mm
04:01 32.5 °F /  0.3 °C 24.1 °F /  -4.4 °C 29.42 in /  996.2 hPa SW 3.6 mph /  5.8 km/h 5.0 mph /  8 km/h 71 % 0.00 in /  0 mm
04:06 32.4 °F /  0.2 °C 24.0 °F /  -4.4 °C 29.43 in /  996.5 hPa SW 5.0 mph /  8 km/h 8.1 mph /  13 km/h 71 % 0.00 in /  0 mm
04:11 32.3 °F /  0.2 °C 23.9 °F /  -4.5 °C 29.43 in /  996.5 hPa SSW 4.1 mph /  6.6 km/h 9.2 mph /  14.8 km/h 71 % 0.00 in /  0 mm
04:16 32.2 °F /  0.1 °C 23.8 °F /  -4.6 °C 29.43 in /  996.5 hPa SW 3.2 mph /  5.1 km/h 8.1 mph /  13 km/h 71 % 0.00 in /  0 mm
04:21 32.1 °F /  0.1 °C 23.8 °F /  -4.6 °C 29.43 in /  996.5 hPa SW 1.2 mph /  1.9 km/h 3.5 mph /  5.6 km/h 71 % 0.00 in /  0 mm
04:26 31.9 °F /  -0.1 °C 23.2 °F /  -4.9 °C 29.43 in /  996.5 hPa West 3.2 mph /  5.1 km/h 5.8 mph /  9.3 km/h 70 % 0.00 in /  0 mm
04:31 31.9 °F /  -0.1 °C 22.9 °F /  -5.1 °C 29.43 in /  996.5 hPa WSW 4.7 mph /  7.6 km/h 10.0 mph /  16.1 km/h 69 % 0.00 in /  0 mm
04:36 31.7 °F /  -0.2 °C 22.7 °F /  -5.2 °C 29.43 in /  996.5 hPa SSW 3.3 mph /  5.3 km/h 8.1 mph /  13 km/h 69 % 0.00 in /  0 mm
04:41 31.7 °F /  -0.2 °C 22.7 °F /  -5.2 °C 29.43 in /  996.5 hPa WSW 4.9 mph /  7.9 km/h 9.2 mph /  14.8 km/h 69 % 0.00 in /  0 mm
04:46 31.6 °F /  -0.2 °C 22.2 °F /  -5.4 °C 29.43 in /  996.5 hPa WSW 6.2 mph /  10 km/h 11.5 mph /  18.5 km/h 68 % 0.00 in /  0 mm
04:51 31.6 °F /  -0.2 °C 22.2 °F /  -5.4 °C 29.43 in /  996.5 hPa WSW 4.4 mph /  7.1 km/h 10.4 mph /  16.7 km/h 68 % 0.00 in /  0 mm
04:56 31.5 °F /  -0.3 °C 22.1 °F /  -5.5 °C 29.43 in /  996.5 hPa SW 4.4 mph /  7.1 km/h 8.1 mph /  13 km/h 68 % 0.00 in /  0 mm
05:01 31.5 °F /  -0.3 °C 22.1 °F /  -5.5 °C 29.43 in /  996.5 hPa SW 3.1 mph /  5 km/h 6.9 mph /  11.1 km/h 68 % 0.00 in /  0 mm
05:06 31.5 °F /  -0.3 °C 22.1 °F /  -5.5 °C 29.43 in /  996.5 hPa SW 5.2 mph /  8.4 km/h 11.5 mph /  18.5 km/h 68 % 0.00 in /  0 mm
05:11 31.4 °F /  -0.3 °C 22.1 °F /  -5.5 °C 29.44 in /  996.8 hPa WNW 3.3 mph /  5.3 km/h 7.0 mph /  11.3 km/h 68 % 0.00 in /  0 mm
05:16 31.4 °F /  -0.3 °C 22.4 °F /  -5.3 °C 29.43 in /  996.5 hPa SSW 5.7 mph /  9.2 km/h 11.5 mph /  18.5 km/h 69 % 0.00 in /  0 mm
05:22 31.5 °F /  -0.3 °C 22.5 °F /  -5.3 °C 29.44 in /  996.8 hPa SW 3.9 mph /  6.3 km/h 5.0 mph /  8 km/h 69 % 0.00 in /  0 mm
05:27 31.5 °F /  -0.3 °C 22.8 °F /  -5.1 °C 29.43 in /  996.5 hPa WNW 5.6 mph /  9 km/h 5.6 mph /  9 km/h 70 % 0.00 in /  0 mm
05:32 31.6 °F /  -0.2 °C 23.3 °F /  -4.8 °C 29.43 in /  996.5 hPa WSW 3.3 mph /  5.3 km/h 7.0 mph /  11.3 km/h 71 % 0.00 in /  0 mm
05:37 31.6 °F /  -0.2 °C 23.3 °F /  -4.8 °C 29.43 in /  996.5 hPa WSW 7.9 mph /  12.7 km/h 13.8 mph /  22.2 km/h 71 % 0.00 in /  0 mm
05:42 31.6 °F /  -0.2 °C 23.6 °F /  -4.7 °C 29.44 in /  996.8 hPa West 4.6 mph /  7.4 km/h 11.5 mph /  18.5 km/h 72 % 0.00 in /  0 mm
05:47 31.6 °F /  -0.2 °C 23.9 °F /  -4.5 °C 29.43 in /  996.5 hPa WNW 4.7 mph /  7.6 km/h 6.9 mph /  11.1 km/h 73 % 0.00 in /  0 mm
05:52 31.6 °F /  -0.2 °C 23.9 °F /  -4.5 °C 29.44 in /  996.8 hPa South 5.6 mph /  9 km/h 11.0 mph /  17.7 km/h 73 % 0.00 in /  0 mm
05:57 31.5 °F /  -0.3 °C 24.8 °F /  -4 °C 29.44 in /  996.8 hPa WSW 5.9 mph /  9.5 km/h 11.5 mph /  18.5 km/h 76 % 0.00 in /  0 mm
06:02 31.5 °F /  -0.3 °C 25.1 °F /  -3.8 °C 29.44 in /  996.8 hPa WSW 5.9 mph /  9.5 km/h 11.5 mph /  18.5 km/h 77 % 0.00 in /  0 mm
06:07 31.4 °F /  -0.3 °C 25.0 °F /  -3.9 °C 29.44 in /  996.8 hPa SSW 5.4 mph /  8.7 km/h 8.1 mph /  13 km/h 77 % 0.00 in /  0 mm
06:12 31.3 °F /  -0.4 °C 25.2 °F /  -3.8 °C 29.44 in /  996.8 hPa West 7.0 mph /  11.3 km/h 14.0 mph /  22.5 km/h 78 % 0.00 in /  0 mm
06:17 31.1 °F /  -0.5 °C 25.7 °F /  -3.5 °C 29.44 in /  996.8 hPa WNW 1.0 mph /  1.6 km/h 4.6 mph /  7.4 km/h 80 % 0.00 in /  0 mm
06:22 31.0 °F /  -0.6 °C 25.9 °F /  -3.4 °C 29.45 in /  997.2 hPa West 4.8 mph /  7.7 km/h 9.0 mph /  14.5 km/h 81 % 0.00 in /  0 mm
06:27 30.9 °F /  -0.6 °C 25.8 °F /  -3.4 °C 29.45 in /  997.2 hPa SW 6.5 mph /  10.5 km/h 15.0 mph /  24.1 km/h 81 % 0.00 in /  0 mm
06:32 30.7 °F /  -0.7 °C 26.1 °F /  -3.3 °C 29.45 in /  997.2 hPa West 6.4 mph /  10.3 km/h 11.5 mph /  18.5 km/h 83 % 0.00 in /  0 mm
06:37 30.6 °F /  -0.8 °C 26.3 °F /  -3.2 °C 29.45 in /  997.2 hPa SW 3.8 mph /  6.1 km/h 7.0 mph /  11.3 km/h 84 % 0.00 in /  0 mm
06:42 30.5 °F /  -0.8 °C 26.5 °F /  -3.1 °C 29.45 in /  997.2 hPa WNW 4.9 mph /  7.9 km/h 9.2 mph /  14.8 km/h 85 % 0.00 in /  0 mm
06:47 30.5 °F /  -0.8 °C 26.5 °F /  -3.1 °C 29.45 in /  997.2 hPa SW 3.6 mph /  5.8 km/h 4.6 mph /  7.4 km/h 85 % 0.00 in /  0 mm
06:53 30.5 °F /  -0.8 °C 26.8 °F /  -2.9 °C 29.45 in /  997.2 hPa WSW 4.8 mph /  7.7 km/h 12.7 mph /  20.4 km/h 86 % 0.00 in /  0 mm
06:58 30.4 °F /  -0.9 °C 27.0 °F /  -2.8 °C 29.44 in /  996.8 hPa SW 5.7 mph /  9.2 km/h 11.0 mph /  17.7 km/h 87 % 0.00 in /  0 mm
07:03 30.5 °F /  -0.8 °C 27.1 °F /  -2.7 °C 29.45 in /  997.2 hPa West 1.0 mph /  1.6 km/h 4.6 mph /  7.4 km/h 87 % 0.00 in /  0 mm
07:08 30.5 °F /  -0.8 °C 27.1 °F /  -2.7 °C 29.44 in /  996.8 hPa SW 3.9 mph /  6.3 km/h 6.9 mph /  11.1 km/h 87 % 0.00 in /  0 mm
07:13 30.5 °F /  -0.8 °C 27.4 °F /  -2.6 °C 29.45 in /  997.2 hPa WSW 2.6 mph /  4.2 km/h 4.6 mph /  7.4 km/h 88 % 0.00 in /  0 mm
07:18 30.6 °F /  -0.8 °C 27.5 °F /  -2.5 °C 29.45 in /  997.2 hPa WSW 1.2 mph /  1.9 km/h 3.5 mph /  5.6 km/h 88 % 0.00 in /  0 mm
07:23 30.6 °F /  -0.8 °C 27.5 °F /  -2.5 °C 29.45 in /  997.2 hPa WSW 3.4 mph /  5.5 km/h 6.9 mph /  11.1 km/h 88 % 0.00 in /  0 mm
07:28 30.7 °F /  -0.7 °C 27.6 °F /  -2.4 °C 29.45 in /  997.2 hPa SSW 2.6 mph /  4.2 km/h 4.6 mph /  7.4 km/h 88 % 0.00 in /  0 mm
07:33 30.7 °F /  -0.7 °C 27.6 °F /  -2.4 °C 29.45 in /  997.2 hPa SW 6.2 mph /  10 km/h 11.5 mph /  18.5 km/h 88 % 0.00 in /  0 mm
07:38 30.8 °F /  -0.7 °C 27.7 °F /  -2.4 °C 29.45 in /  997.2 hPa WSW 5.2 mph /  8.4 km/h 10.4 mph /  16.7 km/h 88 % 0.00 in /  0 mm
07:43 30.8 °F /  -0.7 °C 27.7 °F /  -2.4 °C 29.45 in /  997.2 hPa WSW 3.2 mph /  5.1 km/h 6.9 mph /  11.1 km/h 88 % 0.00 in /  0 mm
07:48 30.9 °F /  -0.6 °C 27.5 °F /  -2.5 °C 29.45 in /  997.2 hPa SW 3.1 mph /  5 km/h 5.0 mph /  8 km/h 87 % 0.00 in /  0 mm
07:53 31.1 °F /  -0.5 °C 27.7 °F /  -2.4 °C 29.45 in /  997.2 hPa WSW 4.8 mph /  7.7 km/h 4.8 mph /  7.7 km/h 87 % 0.00 in /  0 mm
07:58 31.3 °F /  -0.4 °C 27.9 °F /  -2.3 °C 29.45 in /  997.2 hPa WSW 4.3 mph /  6.9 km/h 6.9 mph /  11.1 km/h 87 % 0.00 in /  0 mm
08:03 31.6 °F /  -0.2 °C 27.9 °F /  -2.3 °C 29.44 in /  996.8 hPa SSW 3.8 mph /  6.1 km/h 9.2 mph /  14.8 km/h 86 % 0.00 in /  0 mm
08:08 31.8 °F /  -0.1 °C 27.8 °F /  -2.3 °C 29.44 in /  996.8 hPa WSW 5.7 mph /  9.2 km/h 9.2 mph /  14.8 km/h 85 % 0.00 in /  0 mm
08:13 32.0 °F /  0 °C 27.7 °F /  -2.4 °C 29.44 in /  996.8 hPa WSW 5.3 mph /  8.5 km/h 10.4 mph /  16.7 km/h 84 % 0.00 in /  0 mm
08:18 32.3 °F /  0.2 °C 28.0 °F /  -2.2 °C 29.44 in /  996.8 hPa WSW 8.1 mph /  13 km/h 10.4 mph /  16.7 km/h 84 % 0.00 in /  0 mm
08:24 32.5 °F /  0.3 °C 27.9 °F /  -2.3 °C 29.44 in /  996.8 hPa SW 3.8 mph /  6.1 km/h 9.2 mph /  14.8 km/h 83 % 0.00 in /  0 mm
08:29 32.7 °F /  0.4 °C 27.8 °F /  -2.3 °C 29.44 in /  996.8 hPa SW 4.9 mph /  7.9 km/h 11.0 mph /  17.7 km/h 82 % 0.00 in /  0 mm
08:34 32.9 °F /  0.5 °C 28.0 °F /  -2.2 °C 29.45 in /  997.2 hPa WSW 8.7 mph /  14 km/h 12.7 mph /  20.4 km/h 82 % 0.00 in /  0 mm
08:39 33.1 °F /  0.6 °C 27.9 °F /  -2.3 °C 29.44 in /  996.8 hPa SW 5.1 mph /  8.2 km/h 10.4 mph /  16.7 km/h 81 % 0.00 in /  0 mm
08:44 33.3 °F /  0.7 °C 28.1 °F /  -2.2 °C 29.44 in /  996.8 hPa WSW 4.9 mph /  7.9 km/h 11.0 mph /  17.7 km/h 81 % 0.00 in /  0 mm
08:49 33.6 °F /  0.9 °C 28.1 °F /  -2.2 °C 29.44 in /  996.8 hPa WSW 6.5 mph /  10.5 km/h 12.7 mph /  20.4 km/h 80 % 0.00 in /  0 mm
08:54 33.8 °F /  1 °C 28.3 °F /  -2.1 °C 29.44 in /  996.8 hPa West 6.0 mph /  9.7 km/h 10.4 mph /  16.7 km/h 80 % 0.00 in /  0 mm
08:59 34.0 °F /  1.1 °C 28.2 °F /  -2.1 °C 29.45 in /  997.2 hPa SW 6.5 mph /  10.5 km/h 15.0 mph /  24.1 km/h 79 % 0.00 in /  0 mm
09:04 34.2 °F /  1.2 °C 28.4 °F /  -2 °C 29.45 in /  997.2 hPa WSW 9.2 mph /  14.8 km/h 12.7 mph /  20.4 km/h 79 % 0.00 in /  0 mm
09:09 34.3 °F /  1.3 °C 28.2 °F /  -2.1 °C 29.45 in /  997.2 hPa WSW 4.5 mph /  7.2 km/h 9.2 mph /  14.8 km/h 78 % 0.00 in /  0 mm
09:14 34.5 °F /  1.4 °C 28.7 °F /  -1.8 °C 29.45 in /  997.2 hPa WSW 3.4 mph /  5.5 km/h 5.8 mph /  9.3 km/h 79 % 0.00 in /  0 mm
09:19 34.9 °F /  1.6 °C 28.7 °F /  -1.8 °C 29.45 in /  997.2 hPa WSW 5.5 mph /  8.9 km/h 11.5 mph /  18.5 km/h 78 % 0.00 in /  0 mm
09:24 35.1 °F /  1.7 °C 28.6 °F /  -1.9 °C 29.45 in /  997.2 hPa WSW 8.9 mph /  14.3 km/h 9.2 mph /  14.8 km/h 77 % 0.00 in /  0 mm
09:29 35.3 °F /  1.8 °C 28.5 °F /  -1.9 °C 29.45 in /  997.2 hPa West 9.9 mph /  15.9 km/h 15.0 mph /  24.1 km/h 76 % 0.00 in /  0 mm
09:30 35.3 °F /  1.8 °C 28.5 °F /  -1.9 °C 29.45 in /  997.2 hPa WSW 7.8 mph /  12.6 km/h 15.0 mph /  24.1 km/h 76 % 0.00 in /  0 mm
09:35 35.4 °F /  1.9 °C 28.6 °F /  -1.9 °C 29.45 in /  997.2 hPa SW 4.5 mph /  7.2 km/h 11.0 mph /  17.7 km/h 76 % 0.00 in /  0 mm
09:40 35.8 °F /  2.1 °C 29.3 °F /  -1.5 °C 29.45 in /  997.2 hPa WNW 1.8 mph /  2.9 km/h 5.8 mph /  9.3 km/h 77 % 0.00 in /  0 mm
09:45 36.1 °F /  2.3 °C 28.9 °F /  -1.7 °C 29.45 in /  997.2 hPa WNW 5.3 mph /  8.5 km/h 9.2 mph /  14.8 km/h 75 % 0.00 in /  0 mm
09:50 36.1 °F /  2.3 °C 28.6 °F /  -1.9 °C 29.45 in /  997.2 hPa WNW 7.1 mph /  11.4 km/h 12.7 mph /  20.4 km/h 74 % 0.00 in /  0 mm
09:55 36.1 °F /  2.3 °C 28.6 °F /  -1.9 °C 29.45 in /  997.2 hPa NW 6.5 mph /  10.5 km/h 11.5 mph /  18.5 km/h 74 % 0.00 in /  0 mm
10:00 35.9 °F /  2.2 °C 28.1 °F /  -2.2 °C 29.45 in /  997.2 hPa WNW 7.6 mph /  12.2 km/h 11.5 mph /  18.5 km/h 73 % 0.00 in /  0 mm
10:05 35.8 °F /  2.1 °C 28.0 °F /  -2.2 °C 29.45 in /  997.2 hPa WNW 3.7 mph /  6 km/h 8.0 mph /  12.9 km/h 73 % 0.00 in /  0 mm
10:10 35.8 °F /  2.1 °C 28.0 °F /  -2.2 °C 29.45 in /  997.2 hPa WSW 3.8 mph /  6.1 km/h 10.4 mph /  16.7 km/h 73 % 0.00 in /  0 mm
10:15 35.7 °F /  2.1 °C 27.9 °F /  -2.3 °C 29.45 in /  997.2 hPa NW 4.3 mph /  6.9 km/h 9.2 mph /  14.8 km/h 73 % 0.00 in /  0 mm
10:20 35.9 °F /  2.2 °C 28.1 °F /  -2.2 °C 29.45 in /  997.2 hPa WNW 3.8 mph /  6.1 km/h 10.0 mph /  16.1 km/h 73 % 0.00 in /  0 mm
10:25 36.2 °F /  2.3 °C 28.4 °F /  -2 °C 29.45 in /  997.2 hPa WSW 4.6 mph /  7.4 km/h 8.1 mph /  13 km/h 73 % 0.00 in /  0 mm
10:30 36.6 °F /  2.6 °C 28.4 °F /  -2 °C 29.45 in /  997.2 hPa WNW 5.2 mph /  8.4 km/h 9.0 mph /  14.5 km/h 72 % 0.00 in /  0 mm
10:35 36.9 °F /  2.7 °C 28.4 °F /  -2 °C 29.45 in /  997.2 hPa SW 5.1 mph /  8.2 km/h 15.0 mph /  24.1 km/h 71 % 0.00 in /  0 mm
10:40 36.9 °F /  2.7 °C 28.0 °F /  -2.2 °C 29.45 in /  997.2 hPa WNW 5.6 mph /  9 km/h 10.4 mph /  16.7 km/h 70 % 0.00 in /  0 mm
10:45 37.0 °F /  2.8 °C 28.1 °F /  -2.2 °C 29.45 in /  997.2 hPa WSW 4.9 mph /  7.9 km/h 9.2 mph /  14.8 km/h 70 % 0.00 in /  0 mm
10:50 37.1 °F /  2.8 °C 27.9 °F /  -2.3 °C 29.45 in /  997.2 hPa WNW 4.8 mph /  7.7 km/h 10.4 mph /  16.7 km/h 69 % 0.00 in /  0 mm
10:55 37.2 °F /  2.9 °C 28.3 °F /  -2.1 °C 29.45 in /  997.2 hPa West 2.0 mph /  3.2 km/h 6.9 mph /  11.1 km/h 70 % 0.00 in /  0 mm
11:00 37.5 °F /  3.1 °C 28.6 °F /  -1.9 °C 29.45 in /  997.2 hPa NW 2.9 mph /  4.7 km/h 8.1 mph /  13 km/h 70 % 0.00 in /  0 mm
11:05 37.9 °F /  3.3 °C 28.6 °F /  -1.9 °C 29.45 in /  997.2 hPa WNW 3.4 mph /  5.5 km/h 5.8 mph /  9.3 km/h 69 % 0.00 in /  0 mm
11:10 38.2 °F /  3.4 °C 27.8 °F /  -2.3 °C 29.45 in /  997.2 hPa WNW 3.0 mph /  4.8 km/h 8.1 mph /  13 km/h 66 % 0.00 in /  0 mm
11:16 38.6 °F /  3.7 °C 27.8 °F /  -2.3 °C 29.45 in /  997.2 hPa West 7.0 mph /  11.3 km/h 12.7 mph /  20.4 km/h 65 % 0.00 in /  0 mm
11:21 38.8 °F /  3.8 °C 26.9 °F /  -2.8 °C 29.45 in /  997.2 hPa WNW 5.0 mph /  8 km/h 8.0 mph /  12.9 km/h 62 % 0.00 in /  0 mm
11:26 39.0 °F /  3.9 °C 26.7 °F /  -2.9 °C 29.45 in /  997.2 hPa West 2.0 mph /  3.2 km/h 12.0 mph /  19.3 km/h 61 % 0.00 in /  0 mm
11:31 39.2 °F /  4 °C 26.9 °F /  -2.8 °C 29.45 in /  997.2 hPa West 5.0 mph /  8 km/h 14.0 mph /  22.5 km/h 61 % 0.00 in /  0 mm
11:36 39.3 °F /  4.1 °C 26.6 °F /  -3 °C 29.45 in /  997.2 hPa West 5.0 mph /  8 km/h 17.0 mph /  27.4 km/h 60 % 0.00 in /  0 mm
11:41 39.5 °F /  4.2 °C 26.8 °F /  -2.9 °C 29.45 in /  997.2 hPa West 7.0 mph /  11.3 km/h 12.0 mph /  19.3 km/h 60 % 0.00 in /  0 mm
11:46 39.9 °F /  4.4 °C 28.0 °F /  -2.2 °C 29.45 in /  997.2 hPa West 5.0 mph /  8 km/h 14.0 mph /  22.5 km/h 62 % 0.00 in /  0 mm
11:51 40.5 °F /  4.7 °C 27.7 °F /  -2.4 °C 29.45 in /  997.2 hPa West 6.0 mph /  9.7 km/h 14.0 mph /  22.5 km/h 60 % 0.00 in /  0 mm
11:56 40.9 °F /  4.9 °C 26.8 °F /  -2.9 °C 29.45 in /  997.2 hPa WSW 3.0 mph /  4.8 km/h 12.0 mph /  19.3 km/h 57 % 0.00 in /  0 mm
12:01 41.2 °F /  5.1 °C 27.1 °F /  -2.7 °C 29.45 in /  997.2 hPa NW 5.7 mph /  9.2 km/h 10.4 mph /  16.7 km/h 57 % 0.00 in /  0 mm
12:06 41.2 °F /  5.1 °C 27.1 °F /  -2.7 °C 29.44 in /  996.8 hPa WNW 6.8 mph /  10.9 km/h 10.4 mph /  16.7 km/h 57 % 0.00 in /  0 mm
12:11 41.2 °F /  5.1 °C 27.5 °F /  -2.5 °C 29.44 in /  996.8 hPa WSW 5.8 mph /  9.3 km/h 11.5 mph /  18.5 km/h 58 % 0.00 in /  0 mm
12:16 41.3 °F /  5.2 °C 28.0 °F /  -2.2 °C 29.45 in /  997.2 hPa SW 7.0 mph /  11.3 km/h 16.0 mph /  25.7 km/h 59 % 0.00 in /  0 mm
12:21 41.5 °F /  5.3 °C 28.2 °F /  -2.1 °C 29.44 in /  996.8 hPa NW 3.9 mph /  6.3 km/h 9.0 mph /  14.5 km/h 59 % 0.00 in /  0 mm
12:26 41.7 °F /  5.4 °C 28.4 °F /  -2 °C 29.44 in /  996.8 hPa SSW 5.4 mph /  8.7 km/h 14.0 mph /  22.5 km/h 59 % 0.00 in /  0 mm
12:31 42.0 °F /  5.6 °C 28.7 °F /  -1.8 °C 29.45 in /  997.2 hPa WSW 3.9 mph /  6.3 km/h 12.7 mph /  20.4 km/h 59 % 0.00 in /  0 mm
12:36 42.3 °F /  5.7 °C 28.6 °F /  -1.9 °C 29.45 in /  997.2 hPa SW 7.6 mph /  12.2 km/h 12.7 mph /  20.4 km/h 58 % 0.00 in /  0 mm
12:41 42.5 °F /  5.8 °C 28.8 °F /  -1.8 °C 29.44 in /  996.8 hPa WSW 8.9 mph /  14.3 km/h 14.0 mph /  22.5 km/h 58 % 0.00 in /  0 mm
12:46 42.7 °F /  5.9 °C 28.5 °F /  -1.9 °C 29.44 in /  996.8 hPa SW 6.9 mph /  11.1 km/h 18.4 mph /  29.6 km/h 57 % 0.00 in /  0 mm
12:51 42.7 °F /  5.9 °C 28.9 °F /  -1.7 °C 29.44 in /  996.8 hPa WNW 8.1 mph /  13 km/h 12.7 mph /  20.4 km/h 58 % 0.00 in /  0 mm
12:56 42.8 °F /  6 °C 29.0 °F /  -1.7 °C 29.44 in /  996.8 hPa West 6.9 mph /  11.1 km/h 16.1 mph /  25.9 km/h 58 % 0.00 in /  0 mm
13:01 42.8 °F /  6 °C 29.0 °F /  -1.7 °C 29.44 in /  996.8 hPa WNW 9.7 mph /  15.6 km/h 17.3 mph /  27.8 km/h 58 % 0.00 in /  0 mm
13:06 42.7 °F /  5.9 °C 29.4 °F /  -1.4 °C 29.44 in /  996.8 hPa SW 6.0 mph /  9.7 km/h 17.0 mph /  27.4 km/h 59 % 0.00 in /  0 mm
13:11 42.4 °F /  5.8 °C 29.5 °F /  -1.4 °C 29.44 in /  996.8 hPa West 4.5 mph /  7.2 km/h 8.1 mph /  13 km/h 60 % 0.00 in /  0 mm
13:16 42.3 °F /  5.7 °C 29.4 °F /  -1.4 °C 29.44 in /  996.8 hPa NW 2.5 mph /  4 km/h 10.4 mph /  16.7 km/h 60 % 0.00 in /  0 mm
13:21 42.2 °F /  5.7 °C 28.9 °F /  -1.7 °C 29.44 in /  996.8 hPa West 6.7 mph /  10.8 km/h 17.3 mph /  27.8 km/h 59 % 0.00 in /  0 mm
13:26 42.0 °F /  5.6 °C 28.7 °F /  -1.8 °C 29.44 in /  996.8 hPa SW 6.0 mph /  9.7 km/h 14.0 mph /  22.5 km/h 59 % 0.00 in /  0 mm
13:31 41.7 °F /  5.4 °C 28.8 °F /  -1.8 °C 29.44 in /  996.8 hPa NW 4.7 mph /  7.6 km/h 11.5 mph /  18.5 km/h 60 % 0.00 in /  0 mm
13:36 41.5 °F /  5.3 °C 29.0 °F /  -1.7 °C 29.44 in /  996.8 hPa SSW 6.0 mph /  9.7 km/h 11.5 mph /  18.5 km/h 61 % 0.00 in /  0 mm
13:41 41.4 °F /  5.2 °C 28.9 °F /  -1.7 °C 29.44 in /  996.8 hPa West 7.2 mph /  11.6 km/h 10.4 mph /  16.7 km/h 61 % 0.00 in /  0 mm
13:46 41.4 °F /  5.2 °C 29.3 °F /  -1.5 °C 29.44 in /  996.8 hPa WSW 8.5 mph /  13.7 km/h 19.6 mph /  31.5 km/h 62 % 0.00 in /  0 mm
13:51 41.6 °F /  5.3 °C 29.5 °F /  -1.4 °C 29.44 in /  996.8 hPa SSW 5.8 mph /  9.3 km/h 11.0 mph /  17.7 km/h 62 % 0.00 in /  0 mm
13:57 42.0 °F /  5.6 °C 29.9 °F /  -1.2 °C 29.44 in /  996.8 hPa West 7.3 mph /  11.7 km/h 10.4 mph /  16.7 km/h 62 % 0.00 in /  0 mm
14:02 42.4 °F /  5.8 °C 29.9 °F /  -1.2 °C 29.44 in /  996.8 hPa WNW 4.6 mph /  7.4 km/h 6.9 mph /  11.1 km/h 61 % 0.00 in /  0 mm
14:07 42.8 °F /  6 °C 29.0 °F /  -1.7 °C 29.44 in /  996.8 hPa WNW 8.6 mph /  13.8 km/h 12.7 mph /  20.4 km/h 58 % 0.00 in /  0 mm
14:12 42.8 °F /  6 °C 29.5 °F /  -1.4 °C 29.44 in /  996.8 hPa West 4.5 mph /  7.2 km/h 12.7 mph /  20.4 km/h 59 % 0.00 in /  0 mm
14:17 42.6 °F /  5.9 °C 28.8 °F /  -1.8 °C 29.44 in /  996.8 hPa West 8.3 mph /  13.4 km/h 16.1 mph /  25.9 km/h 58 % 0.00 in /  0 mm
14:22 42.2 °F /  5.7 °C 28.5 °F /  -1.9 °C 29.44 in /  996.8 hPa WNW 7.8 mph /  12.6 km/h 12.7 mph /  20.4 km/h 58 % 0.00 in /  0 mm
14:27 42.1 °F /  5.6 °C 28.8 °F /  -1.8 °C 29.44 in /  996.8 hPa WNW 6.4 mph /  10.3 km/h 11.5 mph /  18.5 km/h 59 % 0.00 in /  0 mm
14:32 42.3 °F /  5.7 °C 29.0 °F /  -1.7 °C 29.44 in /  996.8 hPa NW 5.4 mph /  8.7 km/h 11.5 mph /  18.5 km/h 59 % 0.00 in /  0 mm
14:37 42.5 °F /  5.8 °C 29.2 °F /  -1.6 °C 29.44 in /  996.8 hPa WSW 7.2 mph /  11.6 km/h 12.7 mph /  20.4 km/h 59 % 0.00 in /  0 mm
14:42 42.5 °F /  5.8 °C 28.3 °F /  -2.1 °C 29.44 in /  996.8 hPa WNW 6.4 mph /  10.3 km/h 13.8 mph /  22.2 km/h 57 % 0.00 in /  0 mm
14:47 42.5 °F /  5.8 °C 28.3 °F /  -2.1 °C 29.45 in /  997.2 hPa West 8.5 mph /  13.7 km/h 17.3 mph /  27.8 km/h 57 % 0.00 in /  0 mm
14:52 42.1 °F /  5.6 °C 27.9 °F /  -2.3 °C 29.45 in /  997.2 hPa WSW 10.8 mph /  17.4 km/h 18.0 mph /  29 km/h 57 % 0.00 in /  0 mm
14:57 41.8 °F /  5.4 °C 28.5 °F /  -1.9 °C 29.45 in /  997.2 hPa WSW 6.9 mph /  11.1 km/h 12.7 mph /  20.4 km/h 59 % 0.00 in /  0 mm
15:02 41.7 °F /  5.4 °C 28.8 °F /  -1.8 °C 29.45 in /  997.2 hPa WSW 4.3 mph /  6.9 km/h 8.0 mph /  12.9 km/h 60 % 0.00 in /  0 mm
15:07 41.8 °F /  5.4 °C 28.1 °F /  -2.2 °C 29.45 in /  997.2 hPa NW 6.6 mph /  10.6 km/h 16.1 mph /  25.9 km/h 58 % 0.00 in /  0 mm
15:12 41.8 °F /  5.4 °C 28.5 °F /  -1.9 °C 29.46 in /  997.5 hPa West 9.5 mph /  15.3 km/h 12.7 mph /  20.4 km/h 59 % 0.00 in /  0 mm
15:17 41.8 °F /  5.4 °C 28.5 °F /  -1.9 °C 29.46 in /  997.5 hPa WSW 3.9 mph /  6.3 km/h 8.1 mph /  13 km/h 59 % 0.00 in /  0 mm
15:22 42.0 °F /  5.6 °C 28.7 °F /  -1.8 °C 29.46 in /  997.5 hPa West 7.3 mph /  11.7 km/h 14.0 mph /  22.5 km/h 59 % 0.00 in /  0 mm
15:27 42.2 °F /  5.7 °C 28.5 °F /  -1.9 °C 29.46 in /  997.5 hPa West 5.6 mph /  9 km/h 11.5 mph /  18.5 km/h 58 % 0.00 in /  0 mm
15:32 42.1 °F /  5.6 °C 27.9 °F /  -2.3 °C 29.46 in /  997.5 hPa WSW 7.8 mph /  12.6 km/h 10.4 mph /  16.7 km/h 57 % 0.00 in /  0 mm
15:37 42.0 °F /  5.6 °C 28.3 °F /  -2.1 °C 29.46 in /  997.5 hPa West 3.7 mph /  6 km/h 8.1 mph /  13 km/h 58 % 0.00 in /  0 mm
15:42 41.9 °F /  5.5 °C 28.6 °F /  -1.9 °C 29.46 in /  997.5 hPa West 4.3 mph /  6.9 km/h 5.8 mph /  9.3 km/h 59 % 0.00 in /  0 mm
15:48 41.9 °F /  5.5 °C 28.2 °F /  -2.1 °C 29.46 in /  997.5 hPa WSW 4.7 mph /  7.6 km/h 11.5 mph /  18.5 km/h 58 % 0.00 in /  0 mm
15:53 41.9 °F /  5.5 °C 27.8 °F /  -2.3 °C 29.46 in /  997.5 hPa WNW 7.7 mph /  12.4 km/h 11.5 mph /  18.5 km/h 57 % 0.00 in /  0 mm
15:58 42.0 °F /  5.6 °C 28.3 °F /  -2.1 °C 29.46 in /  997.5 hPa West 7.9 mph /  12.7 km/h 13.0 mph /  20.9 km/h 58 % 0.00 in /  0 mm
16:03 42.0 °F /  5.6 °C 28.3 °F /  -2.1 °C 29.46 in /  997.5 hPa West 6.3 mph /  10.1 km/h 10.4 mph /  16.7 km/h 58 % 0.00 in /  0 mm
16:08 42.0 °F /  5.6 °C 27.4 °F /  -2.6 °C 29.46 in /  997.5 hPa WNW 7.3 mph /  11.7 km/h 10.4 mph /  16.7 km/h 56 % 0.00 in /  0 mm
16:13 41.9 °F /  5.5 °C 27.3 °F /  -2.6 °C 29.47 in /  997.9 hPa West 5.2 mph /  8.4 km/h 12.7 mph /  20.4 km/h 56 % 0.00 in /  0 mm
16:18 41.9 °F /  5.5 °C 26.9 °F /  -2.8 °C 29.47 in /  997.9 hPa SW 7.2 mph /  11.6 km/h 16.0 mph /  25.7 km/h 55 % 0.00 in /  0 mm
16:23 41.8 °F /  5.4 °C 27.2 °F /  -2.7 °C 29.47 in /  997.9 hPa WSW 4.9 mph /  7.9 km/h 9.0 mph /  14.5 km/h 56 % 0.00 in /  0 mm
16:28 41.9 °F /  5.5 °C 27.8 °F /  -2.3 °C 29.47 in /  997.9 hPa SW 1.9 mph /  3.1 km/h 5.8 mph /  9.3 km/h 57 % 0.00 in /  0 mm
16:33 41.8 °F /  5.4 °C 28.1 °F /  -2.2 °C 29.47 in /  997.9 hPa WSW 9.0 mph /  14.5 km/h 12.7 mph /  20.4 km/h 58 % 0.00 in /  0 mm
16:38 41.8 °F /  5.4 °C 28.1 °F /  -2.2 °C 29.47 in /  997.9 hPa WSW 7.0 mph /  11.3 km/h 16.1 mph /  25.9 km/h 58 % 0.00 in /  0 mm
16:43 41.7 °F /  5.4 °C 28.0 °F /  -2.2 °C 29.48 in /  998.2 hPa West 4.2 mph /  6.8 km/h 8.0 mph /  12.9 km/h 58 % 0.00 in /  0 mm
16:48 41.7 °F /  5.4 °C 28.4 °F /  -2 °C 29.47 in /  997.9 hPa WNW 6.4 mph /  10.3 km/h 10.4 mph /  16.7 km/h 59 % 0.00 in /  0 mm
16:53 41.7 °F /  5.4 °C 28.4 °F /  -2 °C 29.47 in /  997.9 hPa SW 2.4 mph /  3.9 km/h 7.0 mph /  11.3 km/h 59 % 0.00 in /  0 mm
16:59 41.8 °F /  5.4 °C 28.5 °F /  -1.9 °C 29.48 in /  998.2 hPa SW 8.8 mph /  14.2 km/h 13.8 mph /  22.2 km/h 59 % 0.00 in /  0 mm
17:04 41.6 °F /  5.3 °C 28.3 °F /  -2.1 °C 29.48 in /  998.2 hPa West 5.7 mph /  9.2 km/h 8.1 mph /  13 km/h 59 % 0.00 in /  0 mm
17:09 41.5 °F /  5.3 °C 27.4 °F /  -2.6 °C 29.48 in /  998.2 hPa West 5.8 mph /  9.3 km/h 12.7 mph /  20.4 km/h 57 % 0.00 in /  0 mm
17:14 41.4 °F /  5.2 °C 27.7 °F /  -2.4 °C 29.48 in /  998.2 hPa WSW 5.7 mph /  9.2 km/h 12.7 mph /  20.4 km/h 58 % 0.00 in /  0 mm
17:19 41.4 °F /  5.2 °C 27.7 °F /  -2.4 °C 29.48 in /  998.2 hPa West 3.8 mph /  6.1 km/h 9.2 mph /  14.8 km/h 58 % 0.00 in /  0 mm
17:24 41.4 °F /  5.2 °C 27.7 °F /  -2.4 °C 29.48 in /  998.2 hPa West 5.1 mph /  8.2 km/h 11.5 mph /  18.5 km/h 58 % 0.00 in /  0 mm
17:29 41.4 °F /  5.2 °C 28.1 °F /  -2.2 °C 29.49 in /  998.5 hPa West 4.6 mph /  7.4 km/h 10.4 mph /  16.7 km/h 59 % 0.00 in /  0 mm
17:34 41.4 °F /  5.2 °C 28.1 °F /  -2.2 °C 29.49 in /  998.5 hPa WSW 6.6 mph /  10.6 km/h 11.5 mph /  18.5 km/h 59 % 0.00 in /  0 mm
17:39 41.3 °F /  5.2 °C 28.0 °F /  -2.2 °C 29.49 in /  998.5 hPa West 6.8 mph /  10.9 km/h 10.4 mph /  16.7 km/h 59 % 0.00 in /  0 mm
17:44 41.2 °F /  5.1 °C 27.9 °F /  -2.3 °C 29.49 in /  998.5 hPa WSW 8.5 mph /  13.7 km/h 11.5 mph /  18.5 km/h 59 % 0.00 in /  0 mm
17:49 41.1 °F /  5.1 °C 27.9 °F /  -2.3 °C 29.49 in /  998.5 hPa WSW 6.6 mph /  10.6 km/h 11.0 mph /  17.7 km/h 59 % 0.00 in /  0 mm
17:54 41.0 °F /  5 °C 28.2 °F /  -2.1 °C 29.50 in /  998.9 hPa WSW 5.9 mph /  9.5 km/h 10.4 mph /  16.7 km/h 60 % 0.00 in /  0 mm
17:59 40.8 °F /  4.9 °C 28.0 °F /  -2.2 °C 29.50 in /  998.9 hPa SSW 7.4 mph /  11.9 km/h 11.5 mph /  18.5 km/h 60 % 0.00 in /  0 mm
18:04 40.7 °F /  4.8 °C 28.3 °F /  -2.1 °C 29.50 in /  998.9 hPa West 6.6 mph /  10.6 km/h 13.8 mph /  22.2 km/h 61 % 0.00 in /  0 mm
18:09 40.6 °F /  4.8 °C 28.6 °F /  -1.9 °C 29.50 in /  998.9 hPa West 4.2 mph /  6.8 km/h 16.1 mph /  25.9 km/h 62 % 0.00 in /  0 mm
18:14 40.4 °F /  4.7 °C 28.0 °F /  -2.2 °C 29.50 in /  998.9 hPa NW 6.9 mph /  11.1 km/h 17.3 mph /  27.8 km/h 61 % 0.00 in /  0 mm
18:19 40.4 °F /  4.7 °C 28.4 °F /  -2 °C 29.50 in /  998.9 hPa West 6.7 mph /  10.8 km/h 11.5 mph /  18.5 km/h 62 % 0.00 in /  0 mm
18:24 40.2 °F /  4.6 °C 28.6 °F /  -1.9 °C 29.51 in /  999.2 hPa SW 8.2 mph /  13.2 km/h 10.4 mph /  16.7 km/h 63 % 0.00 in /  0 mm
18:30 40.1 °F /  4.5 °C 28.5 °F /  -1.9 °C 29.51 in /  999.2 hPa SW 5.5 mph /  8.9 km/h 8.1 mph /  13 km/h 63 % 0.00 in /  0 mm
18:35 40.1 °F /  4.5 °C 28.5 °F /  -1.9 °C 29.51 in /  999.2 hPa WNW 8.5 mph /  13.7 km/h 9.2 mph /  14.8 km/h 63 % 0.00 in /  0 mm
18:40 40.0 °F /  4.4 °C 28.4 °F /  -2 °C 29.51 in /  999.2 hPa WNW 7.9 mph /  12.7 km/h 12.0 mph /  19.3 km/h 63 % 0.00 in /  0 mm
18:45 40.0 °F /  4.4 °C 28.8 °F /  -1.8 °C 29.52 in /  999.5 hPa West 5.2 mph /  8.4 km/h 13.8 mph /  22.2 km/h 64 % 0.00 in /  0 mm
18:50 40.0 °F /  4.4 °C 28.8 °F /  -1.8 °C 29.52 in /  999.5 hPa West 3.8 mph /  6.1 km/h 9.2 mph /  14.8 km/h 64 % 0.00 in /  0 mm
18:55 40.0 °F /  4.4 °C 28.8 °F /  -1.8 °C 29.52 in /  999.5 hPa West 6.5 mph /  10.5 km/h 11.5 mph /  18.5 km/h 64 % 0.00 in /  0 mm
19:00 39.9 °F /  4.4 °C 29.1 °F /  -1.6 °C 29.52 in /  999.5 hPa WNW 4.4 mph /  7.1 km/h 10.4 mph /  16.7 km/h 65 % 0.00 in /  0 mm
19:05 39.8 °F /  4.3 °C 29.4 °F /  -1.4 °C 29.52 in /  999.5 hPa West 4.8 mph /  7.7 km/h 9.2 mph /  14.8 km/h 66 % 0.00 in /  0 mm
19:10 39.7 °F /  4.3 °C 29.3 °F /  -1.5 °C 29.53 in /  999.9 hPa West 7.7 mph /  12.4 km/h 13.8 mph /  22.2 km/h 66 % 0.00 in /  0 mm
19:15 39.6 °F /  4.2 °C 29.2 °F /  -1.6 °C 29.53 in /  999.9 hPa WNW 6.0 mph /  9.7 km/h 11.5 mph /  18.5 km/h 66 % 0.00 in /  0 mm
19:20 39.5 °F /  4.2 °C 29.1 °F /  -1.6 °C 29.53 in /  999.9 hPa WNW 7.6 mph /  12.2 km/h 11.5 mph /  18.5 km/h 66 % 0.00 in /  0 mm
19:25 39.4 °F /  4.1 °C 29.0 °F /  -1.7 °C 29.53 in /  999.9 hPa West 6.7 mph /  10.8 km/h 10.4 mph /  16.7 km/h 66 % 0.00 in /  0 mm
19:30 39.3 °F /  4.1 °C 29.3 °F /  -1.5 °C 29.53 in /  999.9 hPa NW 3.1 mph /  5 km/h 10.4 mph /  16.7 km/h 67 % 0.00 in /  0 mm
19:35 39.3 °F /  4.1 °C 29.3 °F /  -1.5 °C 29.54 in /  1000.2 hPa WSW 2.5 mph /  4 km/h 6.9 mph /  11.1 km/h 67 % 0.00 in /  0 mm
19:40 39.2 °F /  4 °C 29.5 °F /  -1.4 °C 29.54 in /  1000.2 hPa NNW 3.5 mph /  5.6 km/h 5.8 mph /  9.3 km/h 68 % 0.00 in /  0 mm
19:45 39.1 °F /  3.9 °C 29.4 °F /  -1.4 °C 29.54 in /  1000.2 hPa WNW 1.3 mph /  2.1 km/h 6.9 mph /  11.1 km/h 68 % 0.00 in /  0 mm
19:51 39.0 °F /  3.9 °C 29.3 °F /  -1.5 °C 29.55 in /  1000.6 hPa WNW 4.2 mph /  6.8 km/h 9.2 mph /  14.8 km/h 68 % 0.00 in /  0 mm
19:56 38.9 °F /  3.8 °C 29.3 °F /  -1.5 °C 29.55 in /  1000.6 hPa West 5.0 mph /  8 km/h 9.0 mph /  14.5 km/h 68 % 0.00 in /  0 mm
20:01 38.9 °F /  3.8 °C 29.2 °F /  -1.6 °C 29.55 in /  1000.6 hPa NW 2.8 mph /  4.5 km/h 8.0 mph /  12.9 km/h 68 % 0.00 in /  0 mm
20:06 38.8 °F /  3.8 °C 29.1 °F /  -1.6 °C 29.55 in /  1000.6 hPa WNW 5.0 mph /  8 km/h 12.0 mph /  19.3 km/h 68 % 0.00 in /  0 mm
20:11 38.8 °F /  3.8 °C 29.5 °F /  -1.4 °C 29.55 in /  1000.6 hPa West 3.0 mph /  4.8 km/h 10.0 mph /  16.1 km/h 69 % 0.00 in /  0 mm
20:16 38.7 °F /  3.7 °C 29.4 °F /  -1.4 °C 29.55 in /  1000.6 hPa West 3.0 mph /  4.8 km/h 9.0 mph /  14.5 km/h 69 % 0.00 in /  0 mm
20:21 38.7 °F /  3.7 °C 29.0 °F /  -1.7 °C 29.55 in /  1000.6 hPa WSW 5.0 mph /  8 km/h 10.0 mph /  16.1 km/h 68 % 0.00 in /  0 mm
20:26 38.6 °F /  3.7 °C 28.9 °F /  -1.7 °C 29.55 in /  1000.6 hPa WSW 2.0 mph /  3.2 km/h 10.0 mph /  16.1 km/h 68 % 0.00 in /  0 mm
20:31 38.6 °F /  3.7 °C 29.3 °F /  -1.5 °C 29.55 in /  1000.6 hPa WSW 2.0 mph /  3.2 km/h 7.0 mph /  11.3 km/h 69 % 0.00 in /  0 mm
20:36 38.5 °F /  3.6 °C 29.2 °F /  -1.6 °C 29.55 in /  1000.6 hPa West 5.0 mph /  8 km/h 10.0 mph /  16.1 km/h 69 % 0.00 in /  0 mm
20:41 38.4 °F /  3.6 °C 28.4 °F /  -2 °C 29.56 in /  1000.9 hPa WSW 6.0 mph /  9.7 km/h 16.0 mph /  25.7 km/h 67 % 0.00 in /  0 mm
20:46 38.3 °F /  3.5 °C 28.0 °F /  -2.2 °C 29.56 in /  1000.9 hPa WSW 5.0 mph /  8 km/h 12.0 mph /  19.3 km/h 66 % 0.00 in /  0 mm
20:51 38.3 °F /  3.5 °C 27.9 °F /  -2.3 °C 29.55 in /  1000.6 hPa West 6.0 mph /  9.7 km/h 9.0 mph /  14.5 km/h 66 % 0.00 in /  0 mm
20:56 38.2 °F /  3.4 °C 27.8 °F /  -2.3 °C 29.56 in /  1000.9 hPa WSW 8.0 mph /  12.9 km/h 14.0 mph /  22.5 km/h 66 % 0.00 in /  0 mm
21:01 38.1 °F /  3.4 °C 27.7 °F /  -2.4 °C 29.56 in /  1000.9 hPa WSW 2.8 mph /  4.5 km/h 13.0 mph /  20.9 km/h 66 % 0.00 in /  0 mm
21:06 38.1 °F /  3.4 °C 27.7 °F /  -2.4 °C 29.56 in /  1000.9 hPa West 2.0 mph /  3.2 km/h 14.0 mph /  22.5 km/h 66 % 0.00 in /  0 mm
21:11 38.0 °F /  3.3 °C 27.6 °F /  -2.4 °C 29.56 in /  1000.9 hPa WSW 5.0 mph /  8 km/h 12.0 mph /  19.3 km/h 66 % 0.00 in /  0 mm
21:15 37.9 °F /  3.3 °C 27.5 °F /  -2.5 °C 29.56 in /  1000.9 hPa WSW 1.0 mph /  1.6 km/h 12.0 mph /  19.3 km/h 66 % 0.00 in /  0 mm
21:21 37.8 °F /  3.2 °C 27.5 °F /  -2.5 °C 29.56 in /  1000.9 hPa WSW 1.0 mph /  1.6 km/h 12.0 mph /  19.3 km/h 66 % 0.00 in /  0 mm
21:26 37.7 °F /  3.2 °C 27.4 °F /  -2.6 °C 29.56 in /  1000.9 hPa WSW 3.0 mph /  4.8 km/h 12.0 mph /  19.3 km/h 66 % 0.00 in /  0 mm
21:31 37.6 °F /  3.1 °C 27.3 °F /  -2.6 °C 29.56 in /  1000.9 hPa SSW 1.7 mph /  2.7 km/h 2.0 mph /  3.2 km/h 66 % 0.00 in /  0 mm
21:36 37.4 °F /  3 °C 27.1 °F /  -2.7 °C 29.56 in /  1000.9 hPa SW 2.9 mph /  4.7 km/h 10.4 mph /  16.7 km/h 66 % 0.00 in /  0 mm
21:41 37.3 °F /  2.9 °C 27.0 °F /  -2.8 °C 29.56 in /  1000.9 hPa WSW 3.6 mph /  5.8 km/h 8.1 mph /  13 km/h 66 % 0.00 in /  0 mm
21:46 37.2 °F /  2.9 °C 26.9 °F /  -2.8 °C 29.56 in /  1000.9 hPa WSW 5.5 mph /  8.9 km/h 10.4 mph /  16.7 km/h 66 % 0.00 in /  0 mm
21:51 37.0 °F /  2.8 °C 26.7 °F /  -2.9 °C 29.56 in /  1000.9 hPa West 5.4 mph /  8.7 km/h 11.5 mph /  18.5 km/h 66 % 0.00 in /  0 mm
21:56 37.0 °F /  2.8 °C 26.7 °F /  -2.9 °C 29.56 in /  1000.9 hPa WSW 6.6 mph /  10.6 km/h 11.5 mph /  18.5 km/h 66 % 0.00 in /  0 mm
22:01 36.9 °F /  2.7 °C 26.6 °F /  -3 °C 29.56 in /  1000.9 hPa WSW 5.8 mph /  9.3 km/h 10.4 mph /  16.7 km/h 66 % 0.00 in /  0 mm
22:06 36.9 °F /  2.7 °C 27.0 °F /  -2.8 °C 29.56 in /  1000.9 hPa West 5.2 mph /  8.4 km/h 9.2 mph /  14.8 km/h 67 % 0.00 in /  0 mm
22:11 36.8 °F /  2.7 °C 26.9 °F /  -2.8 °C 29.56 in /  1000.9 hPa WNW 7.5 mph /  12.1 km/h 13.8 mph /  22.2 km/h 67 % 0.00 in /  0 mm
22:16 36.8 °F /  2.7 °C 26.5 °F /  -3.1 °C 29.56 in /  1000.9 hPa SW 7.6 mph /  12.2 km/h 9.2 mph /  14.8 km/h 66 % 0.00 in /  0 mm
22:21 36.8 °F /  2.7 °C 26.9 °F /  -2.8 °C 29.56 in /  1000.9 hPa WSW 7.4 mph /  11.9 km/h 12.7 mph /  20.4 km/h 67 % 0.00 in /  0 mm
22:26 36.8 °F /  2.7 °C 26.9 °F /  -2.8 °C 29.56 in /  1000.9 hPa WSW 7.0 mph /  11.3 km/h 10.4 mph /  16.7 km/h 67 % 0.00 in /  0 mm
22:31 36.7 °F /  2.6 °C 26.8 °F /  -2.9 °C 29.57 in /  1001.2 hPa WNW 5.1 mph /  8.2 km/h 11.5 mph /  18.5 km/h 67 % 0.00 in /  0 mm
22:36 36.6 °F /  2.6 °C 26.7 °F /  -2.9 °C 29.57 in /  1001.2 hPa West 4.1 mph /  6.6 km/h 10.4 mph /  16.7 km/h 67 % 0.00 in /  0 mm
22:41 36.6 °F /  2.6 °C 27.0 °F /  -2.8 °C 29.57 in /  1001.2 hPa SW 7.7 mph /  12.4 km/h 11.5 mph /  18.5 km/h 68 % 0.00 in /  0 mm
22:46 36.5 °F /  2.5 °C 26.6 °F /  -3 °C 29.57 in /  1001.2 hPa WSW 3.4 mph /  5.5 km/h 6.9 mph /  11.1 km/h 67 % 0.00 in /  0 mm
22:51 36.4 °F /  2.4 °C 26.5 °F /  -3.1 °C 29.57 in /  1001.2 hPa SW 4.1 mph /  6.6 km/h 8.0 mph /  12.9 km/h 67 % 0.00 in /  0 mm
22:56 36.4 °F /  2.4 °C 26.5 °F /  -3.1 °C 29.57 in /  1001.2 hPa West 3.8 mph /  6.1 km/h 7.0 mph /  11.3 km/h 67 % 0.00 in /  0 mm
23:01 36.2 °F /  2.3 °C 26.3 °F /  -3.2 °C 29.56 in /  1000.9 hPa WSW 3.7 mph /  6 km/h 8.0 mph /  12.9 km/h 67 % 0.00 in /  0 mm
23:06 36.2 °F /  2.3 °C 26.6 °F /  -3 °C 29.57 in /  1001.2 hPa WSW 8.3 mph /  13.4 km/h 11.5 mph /  18.5 km/h 68 % 0.00 in /  0 mm
23:11 36.1 °F /  2.3 °C 26.6 °F /  -3 °C 29.57 in /  1001.2 hPa WSW 4.4 mph /  7.1 km/h 10.4 mph /  16.7 km/h 68 % 0.00 in /  0 mm
23:17 36.1 °F /  2.3 °C 26.2 °F /  -3.2 °C 29.57 in /  1001.2 hPa WSW 2.2 mph /  3.5 km/h 10.0 mph /  16.1 km/h 67 % 0.00 in /  0 mm
23:22 36.0 °F /  2.2 °C 26.5 °F /  -3.1 °C 29.56 in /  1000.9 hPa WSW 8.7 mph /  14 km/h 13.8 mph /  22.2 km/h 68 % 0.00 in /  0 mm
23:27 35.9 °F /  2.2 °C 26.4 °F /  -3.1 °C 29.57 in /  1001.2 hPa WSW 3.4 mph /  5.5 km/h 15.0 mph /  24.1 km/h 68 % 0.00 in /  0 mm
23:32 35.9 °F /  2.2 °C 26.4 °F /  -3.1 °C 29.57 in /  1001.2 hPa SW 7.0 mph /  11.3 km/h 11.5 mph /  18.5 km/h 68 % 0.00 in /  0 mm
23:37 35.8 °F /  2.1 °C 26.6 °F /  -3 °C 29.57 in /  1001.2 hPa West 2.5 mph /  4 km/h 8.1 mph /  13 km/h 69 % 0.00 in /  0 mm
23:42 35.8 °F /  2.1 °C 26.6 °F /  -3 °C 29.57 in /  1001.2 hPa West 4.6 mph /  7.4 km/h 8.1 mph /  13 km/h 69 % 0.00 in /  0 mm
23:47 35.7 °F /  2.1 °C 26.5 °F /  -3.1 °C 29.57 in /  1001.2 hPa West 9.1 mph /  14.6 km/h 15.0 mph /  24.1 km/h 69 % 0.00 in /  0 mm
23:52 35.7 °F /  2.1 °C 26.5 °F /  -3.1 °C 29.56 in /  1000.9 hPa West 6.2 mph /  10 km/h 11.5 mph /  18.5 km/h 69 % 0.00 in /  0 mm
23:57 35.6 °F /  2 °C 26.8 °F /  -2.9 °C 29.57 in /  1001.2 hPa WSW 7.4 mph /  11.9 km/h 12.7 mph /  20.4 km/h 70 % 0.00 in /  0 mm
Crab Meadow Weather
Compliments of Weather Underground - 3 mb

Script developed by  Jim McMurry - jmcmurry@mwt.net Adapted for the template by  Wim van der Kuil - Leuven-Template.eu

Extremes: A record low of - 128.6 degrees F was recorded at Vostok, Antarctica.